sensor_id;sensor_type;location;lat;lon;timestamp;P1;durP1;ratioP1;P2;durP2;ratioP2
57249;SDS011;43102;52.014;-0.680;2023-07-13T00:00:01;6.20;;;4.10;;
57249;SDS011;43102;52.014;-0.680;2023-07-13T00:01:00;6.20;;;4.10;;
57249;SDS011;43102;52.014;-0.680;2023-07-13T00:02:01;6.20;;;4.10;;
57249;SDS011;43102;52.014;-0.680;2023-07-13T00:03:01;6.20;;;4.10;;
57249;SDS011;43102;52.014;-0.680;2023-07-13T00:04:01;6.20;;;4.10;;
57249;SDS011;43102;52.014;-0.680;2023-07-13T00:05:00;6.20;;;4.10;;
57249;SDS011;43102;52.014;-0.680;2023-07-13T00:06:01;6.20;;;4.10;;
57249;SDS011;43102;52.014;-0.680;2023-07-13T00:07:00;6.20;;;4.10;;
57249;SDS011;43102;52.014;-0.680;2023-07-13T00:08:01;6.20;;;4.10;;
57249;SDS011;43102;52.014;-0.680;2023-07-13T00:09:01;6.20;;;4.10;;
57249;SDS011;43102;52.014;-0.680;2023-07-13T00:10:01;6.20;;;4.10;;
57249;SDS011;43102;52.014;-0.680;2023-07-13T00:11:02;6.20;;;4.10;;
57249;SDS011;43102;52.014;-0.680;2023-07-13T00:12:01;6.20;;;4.10;;
57249;SDS011;43102;52.014;-0.680;2023-07-13T00:13:00;6.20;;;4.10;;
57249;SDS011;43102;52.014;-0.680;2023-07-13T00:14:00;6.20;;;4.10;;
57249;SDS011;43102;52.014;-0.680;2023-07-13T00:15:04;6.20;;;4.10;;
57249;SDS011;43102;52.014;-0.680;2023-07-13T00:16:01;6.20;;;4.10;;
57249;SDS011;43102;52.014;-0.680;2023-07-13T00:17:00;6.20;;;4.10;;
57249;SDS011;43102;52.014;-0.680;2023-07-13T00:18:00;6.20;;;4.10;;
57249;SDS011;43102;52.014;-0.680;2023-07-13T00:19:00;6.20;;;4.10;;
57249;SDS011;43102;52.014;-0.680;2023-07-13T00:20:01;6.20;;;4.10;;
57249;SDS011;43102;52.014;-0.680;2023-07-13T00:21:04;6.20;;;4.10;;
57249;SDS011;43102;52.014;-0.680;2023-07-13T00:22:00;6.20;;;4.10;;
57249;SDS011;43102;52.014;-0.680;2023-07-13T00:23:01;6.20;;;4.10;;
57249;SDS011;43102;52.014;-0.680;2023-07-13T00:24:01;6.20;;;4.10;;
57249;SDS011;43102;52.014;-0.680;2023-07-13T00:25:01;6.20;;;4.10;;
57249;SDS011;43102;52.014;-0.680;2023-07-13T00:26:02;6.20;;;4.10;;
57249;SDS011;43102;52.014;-0.680;2023-07-13T00:27:00;6.20;;;4.10;;
57249;SDS011;43102;52.014;-0.680;2023-07-13T00:28:00;6.20;;;4.10;;
57249;SDS011;43102;52.014;-0.680;2023-07-13T00:29:00;6.50;;;3.80;;
57249;SDS011;43102;52.014;-0.680;2023-07-13T00:30:00;6.50;;;3.80;;
57249;SDS011;43102;52.014;-0.680;2023-07-13T00:31:01;6.50;;;3.80;;
57249;SDS011;43102;52.014;-0.680;2023-07-13T00:32:02;6.50;;;3.80;;
57249;SDS011;43102;52.014;-0.680;2023-07-13T00:33:10;6.50;;;3.80;;
57249;SDS011;43102;52.014;-0.680;2023-07-13T00:34:00;6.50;;;3.80;;
57249;SDS011;43102;52.014;-0.680;2023-07-13T00:35:01;6.50;;;3.80;;
57249;SDS011;43102;52.014;-0.680;2023-07-13T00:36:01;6.50;;;3.80;;
57249;SDS011;43102;52.014;-0.680;2023-07-13T00:37:01;6.50;;;3.80;;
57249;SDS011;43102;52.014;-0.680;2023-07-13T00:38:01;6.50;;;3.80;;
57249;SDS011;43102;52.014;-0.680;2023-07-13T00:39:01;6.50;;;3.80;;
57249;SDS011;43102;52.014;-0.680;2023-07-13T00:40:01;6.50;;;3.80;;
57249;SDS011;43102;52.014;-0.680;2023-07-13T00:41:01;6.50;;;3.80;;
57249;SDS011;43102;52.014;-0.680;2023-07-13T00:42:02;6.50;;;3.80;;
57249;SDS011;43102;52.014;-0.680;2023-07-13T00:43:00;6.50;;;3.80;;
57249;SDS011;43102;52.014;-0.680;2023-07-13T00:44:02;6.50;;;3.80;;
57249;SDS011;43102;52.014;-0.680;2023-07-13T00:45:02;6.50;;;3.80;;
57249;SDS011;43102;52.014;-0.680;2023-07-13T00:46:09;6.50;;;3.80;;
57249;SDS011;43102;52.014;-0.680;2023-07-13T00:47:00;6.50;;;3.80;;
57249;SDS011;43102;52.014;-0.680;2023-07-13T00:48:00;6.50;;;3.80;;
57249;SDS011;43102;52.014;-0.680;2023-07-13T00:49:04;6.50;;;3.80;;
57249;SDS011;43102;52.014;-0.680;2023-07-13T00:50:01;6.50;;;3.80;;
57249;SDS011;43102;52.014;-0.680;2023-07-13T00:51:01;6.50;;;3.80;;
57249;SDS011;43102;52.014;-0.680;2023-07-13T00:52:06;6.50;;;3.80;;
57249;SDS011;43102;52.014;-0.680;2023-07-13T00:53:00;6.50;;;3.80;;
57249;SDS011;43102;52.014;-0.680;2023-07-13T00:54:04;6.50;;;3.80;;
57249;SDS011;43102;52.014;-0.680;2023-07-13T00:55:01;6.50;;;3.80;;
57249;SDS011;43102;52.014;-0.680;2023-07-13T00:56:00;6.50;;;3.80;;
57249;SDS011;43102;52.014;-0.680;2023-07-13T00:57:03;6.50;;;3.80;;
57249;SDS011;43102;52.014;-0.680;2023-07-13T00:58:02;6.50;;;3.80;;
57249;SDS011;43102;52.014;-0.680;2023-07-13T00:59:02;7.50;;;4.10;;
57249;SDS011;43102;52.014;-0.680;2023-07-13T01:00:09;7.50;;;4.10;;
57249;SDS011;43102;52.014;-0.680;2023-07-13T01:01:00;7.50;;;4.10;;
57249;SDS011;43102;52.014;-0.680;2023-07-13T01:02:01;7.50;;;4.10;;
57249;SDS011;43102;52.014;-0.680;2023-07-13T01:03:04;7.50;;;4.10;;
57249;SDS011;43102;52.014;-0.680;2023-07-13T01:04:00;7.50;;;4.10;;
57249;SDS011;43102;52.014;-0.680;2023-07-13T01:05:01;7.50;;;4.10;;
57249;SDS011;43102;52.014;-0.680;2023-07-13T01:06:01;7.50;;;4.10;;
57249;SDS011;43102;52.014;-0.680;2023-07-13T01:07:00;7.50;;;4.10;;
57249;SDS011;43102;52.014;-0.680;2023-07-13T01:08:02;7.50;;;4.10;;
57249;SDS011;43102;52.014;-0.680;2023-07-13T01:09:01;7.50;;;4.10;;
57249;SDS011;43102;52.014;-0.680;2023-07-13T01:10:00;7.50;;;4.10;;
57249;SDS011;43102;52.014;-0.680;2023-07-13T01:11:00;7.50;;;4.10;;
57249;SDS011;43102;52.014;-0.680;2023-07-13T01:12:01;7.50;;;4.10;;
57249;SDS011;43102;52.014;-0.680;2023-07-13T01:13:00;7.50;;;4.10;;
57249;SDS011;43102;52.014;-0.680;2023-07-13T01:14:01;7.50;;;4.10;;
57249;SDS011;43102;52.014;-0.680;2023-07-13T01:15:01;7.50;;;4.10;;
57249;SDS011;43102;52.014;-0.680;2023-07-13T01:16:03;7.50;;;4.10;;
57249;SDS011;43102;52.014;-0.680;2023-07-13T01:17:00;7.50;;;4.10;;
57249;SDS011;43102;52.014;-0.680;2023-07-13T01:18:01;7.50;;;4.10;;
57249;SDS011;43102;52.014;-0.680;2023-07-13T01:19:01;7.50;;;4.10;;
57249;SDS011;43102;52.014;-0.680;2023-07-13T01:20:01;7.50;;;4.10;;
57249;SDS011;43102;52.014;-0.680;2023-07-13T01:21:03;7.50;;;4.10;;
57249;SDS011;43102;52.014;-0.680;2023-07-13T01:22:01;7.50;;;4.10;;
57249;SDS011;43102;52.014;-0.680;2023-07-13T01:23:01;7.50;;;4.10;;
57249;SDS011;43102;52.014;-0.680;2023-07-13T01:24:02;7.50;;;4.10;;
57249;SDS011;43102;52.014;-0.680;2023-07-13T01:25:02;7.50;;;4.10;;
57249;SDS011;43102;52.014;-0.680;2023-07-13T01:26:00;7.50;;;4.10;;
57249;SDS011;43102;52.014;-0.680;2023-07-13T01:27:00;7.50;;;4.10;;
57249;SDS011;43102;52.014;-0.680;2023-07-13T01:28:02;7.50;;;4.10;;
57249;SDS011;43102;52.014;-0.680;2023-07-13T01:29:01;8.70;;;4.00;;
57249;SDS011;43102;52.014;-0.680;2023-07-13T01:30:04;8.70;;;4.00;;
57249;SDS011;43102;52.014;-0.680;2023-07-13T01:31:00;8.70;;;4.00;;
57249;SDS011;43102;52.014;-0.680;2023-07-13T01:32:01;8.70;;;4.00;;
57249;SDS011;43102;52.014;-0.680;2023-07-13T01:33:03;8.70;;;4.00;;
57249;SDS011;43102;52.014;-0.680;2023-07-13T01:34:00;8.70;;;4.00;;
57249;SDS011;43102;52.014;-0.680;2023-07-13T01:35:00;8.70;;;4.00;;
57249;SDS011;43102;52.014;-0.680;2023-07-13T01:36:02;8.70;;;4.00;;
57249;SDS011;43102;52.014;-0.680;2023-07-13T01:37:00;8.70;;;4.00;;
57249;SDS011;43102;52.014;-0.680;2023-07-13T01:38:01;8.70;;;4.00;;
57249;SDS011;43102;52.014;-0.680;2023-07-13T01:39:00;8.70;;;4.00;;
57249;SDS011;43102;52.014;-0.680;2023-07-13T01:40:00;8.70;;;4.00;;
57249;SDS011;43102;52.014;-0.680;2023-07-13T01:41:01;8.70;;;4.00;;
57249;SDS011;43102;52.014;-0.680;2023-07-13T01:42:01;8.70;;;4.00;;
57249;SDS011;43102;52.014;-0.680;2023-07-13T01:43:01;8.70;;;4.00;;
57249;SDS011;43102;52.014;-0.680;2023-07-13T01:44:00;8.70;;;4.00;;
57249;SDS011;43102;52.014;-0.680;2023-07-13T01:45:00;8.70;;;4.00;;
57249;SDS011;43102;52.014;-0.680;2023-07-13T01:46:10;8.70;;;4.00;;
57249;SDS011;43102;52.014;-0.680;2023-07-13T01:47:01;8.70;;;4.00;;
57249;SDS011;43102;52.014;-0.680;2023-07-13T01:48:01;8.70;;;4.00;;
57249;SDS011;43102;52.014;-0.680;2023-07-13T01:49:02;8.70;;;4.00;;
57249;SDS011;43102;52.014;-0.680;2023-07-13T01:50:00;8.70;;;4.00;;
57249;SDS011;43102;52.014;-0.680;2023-07-13T01:51:00;8.70;;;4.00;;
57249;SDS011;43102;52.014;-0.680;2023-07-13T01:52:00;8.70;;;4.00;;
57249;SDS011;43102;52.014;-0.680;2023-07-13T01:53:01;8.70;;;4.00;;
57249;SDS011;43102;52.014;-0.680;2023-07-13T01:54:00;8.70;;;4.00;;
57249;SDS011;43102;52.014;-0.680;2023-07-13T01:55:00;8.70;;;4.00;;
57249;SDS011;43102;52.014;-0.680;2023-07-13T01:56:00;8.70;;;4.00;;
57249;SDS011;43102;52.014;-0.680;2023-07-13T01:57:01;8.70;;;4.00;;
57249;SDS011;43102;52.014;-0.680;2023-07-13T01:58:01;8.70;;;4.00;;
57249;SDS011;43102;52.014;-0.680;2023-07-13T01:59:00;9.00;;;4.70;;
57249;SDS011;43102;52.014;-0.680;2023-07-13T02:00:03;9.00;;;4.70;;
57249;SDS011;43102;52.014;-0.680;2023-07-13T02:01:00;9.00;;;4.70;;
57249;SDS011;43102;52.014;-0.680;2023-07-13T02:02:01;9.00;;;4.70;;
57249;SDS011;43102;52.014;-0.680;2023-07-13T02:03:01;9.00;;;4.70;;
57249;SDS011;43102;52.014;-0.680;2023-07-13T02:04:00;9.00;;;4.70;;
57249;SDS011;43102;52.014;-0.680;2023-07-13T02:05:00;9.00;;;4.70;;
57249;SDS011;43102;52.014;-0.680;2023-07-13T02:06:00;9.00;;;4.70;;
57249;SDS011;43102;52.014;-0.680;2023-07-13T02:07:00;9.00;;;4.70;;
57249;SDS011;43102;52.014;-0.680;2023-07-13T02:08:00;9.00;;;4.70;;
57249;SDS011;43102;52.014;-0.680;2023-07-13T02:09:00;9.00;;;4.70;;
57249;SDS011;43102;52.014;-0.680;2023-07-13T02:10:01;9.00;;;4.70;;
57249;SDS011;43102;52.014;-0.680;2023-07-13T02:11:03;9.00;;;4.70;;
57249;SDS011;43102;52.014;-0.680;2023-07-13T02:12:01;9.00;;;4.70;;
57249;SDS011;43102;52.014;-0.680;2023-07-13T02:13:00;9.00;;;4.70;;
57249;SDS011;43102;52.014;-0.680;2023-07-13T02:14:02;9.00;;;4.70;;
57249;SDS011;43102;52.014;-0.680;2023-07-13T02:15:01;9.00;;;4.70;;
57249;SDS011;43102;52.014;-0.680;2023-07-13T02:16:01;9.00;;;4.70;;
57249;SDS011;43102;52.014;-0.680;2023-07-13T02:17:00;9.00;;;4.70;;
57249;SDS011;43102;52.014;-0.680;2023-07-13T02:18:01;9.00;;;4.70;;
57249;SDS011;43102;52.014;-0.680;2023-07-13T02:19:00;9.00;;;4.70;;
57249;SDS011;43102;52.014;-0.680;2023-07-13T02:20:01;9.00;;;4.70;;
57249;SDS011;43102;52.014;-0.680;2023-07-13T02:21:00;9.00;;;4.70;;
57249;SDS011;43102;52.014;-0.680;2023-07-13T02:22:00;9.00;;;4.70;;
57249;SDS011;43102;52.014;-0.680;2023-07-13T02:23:00;9.00;;;4.70;;
57249;SDS011;43102;52.014;-0.680;2023-07-13T02:24:01;9.00;;;4.70;;
57249;SDS011;43102;52.014;-0.680;2023-07-13T02:25:00;9.00;;;4.70;;
57249;SDS011;43102;52.014;-0.680;2023-07-13T02:26:03;9.00;;;4.70;;
57249;SDS011;43102;52.014;-0.680;2023-07-13T02:27:00;9.00;;;4.70;;
57249;SDS011;43102;52.014;-0.680;2023-07-13T02:28:00;9.00;;;4.70;;
57249;SDS011;43102;52.014;-0.680;2023-07-13T02:29:00;7.70;;;4.10;;
57249;SDS011;43102;52.014;-0.680;2023-07-13T02:30:00;7.70;;;4.10;;
57249;SDS011;43102;52.014;-0.680;2023-07-13T02:31:10;7.70;;;4.10;;
57249;SDS011;43102;52.014;-0.680;2023-07-13T02:32:00;7.70;;;4.10;;
57249;SDS011;43102;52.014;-0.680;2023-07-13T02:33:00;7.70;;;4.10;;
57249;SDS011;43102;52.014;-0.680;2023-07-13T02:34:00;7.70;;;4.10;;
57249;SDS011;43102;52.014;-0.680;2023-07-13T02:35:01;7.70;;;4.10;;
57249;SDS011;43102;52.014;-0.680;2023-07-13T02:36:00;7.70;;;4.10;;
57249;SDS011;43102;52.014;-0.680;2023-07-13T02:37:00;7.70;;;4.10;;
57249;SDS011;43102;52.014;-0.680;2023-07-13T02:38:00;7.70;;;4.10;;
57249;SDS011;43102;52.014;-0.680;2023-07-13T02:39:02;7.70;;;4.10;;
57249;SDS011;43102;52.014;-0.680;2023-07-13T02:40:00;7.70;;;4.10;;
57249;SDS011;43102;52.014;-0.680;2023-07-13T02:41:04;7.70;;;4.10;;
57249;SDS011;43102;52.014;-0.680;2023-07-13T02:42:00;7.70;;;4.10;;
57249;SDS011;43102;52.014;-0.680;2023-07-13T02:43:01;7.70;;;4.10;;
57249;SDS011;43102;52.014;-0.680;2023-07-13T02:44:03;7.70;;;4.10;;
57249;SDS011;43102;52.014;-0.680;2023-07-13T02:45:00;7.70;;;4.10;;
57249;SDS011;43102;52.014;-0.680;2023-07-13T02:46:06;7.70;;;4.10;;
57249;SDS011;43102;52.014;-0.680;2023-07-13T02:47:00;7.70;;;4.10;;
57249;SDS011;43102;52.014;-0.680;2023-07-13T02:48:00;7.70;;;4.10;;
57249;SDS011;43102;52.014;-0.680;2023-07-13T02:49:00;7.70;;;4.10;;
57249;SDS011;43102;52.014;-0.680;2023-07-13T02:50:01;7.70;;;4.10;;
57249;SDS011;43102;52.014;-0.680;2023-07-13T02:51:00;7.70;;;4.10;;
57249;SDS011;43102;52.014;-0.680;2023-07-13T02:52:00;7.70;;;4.10;;
57249;SDS011;43102;52.014;-0.680;2023-07-13T02:53:00;7.70;;;4.10;;
57249;SDS011;43102;52.014;-0.680;2023-07-13T02:54:01;7.70;;;4.10;;
57249;SDS011;43102;52.014;-0.680;2023-07-13T02:55:00;7.70;;;4.10;;
57249;SDS011;43102;52.014;-0.680;2023-07-13T02:56:01;7.70;;;4.10;;
57249;SDS011;43102;52.014;-0.680;2023-07-13T02:57:00;7.70;;;4.10;;
57249;SDS011;43102;52.014;-0.680;2023-07-13T02:58:01;7.70;;;4.10;;
57249;SDS011;43102;52.014;-0.680;2023-07-13T02:59:01;6.70;;;4.50;;
57249;SDS011;43102;52.014;-0.680;2023-07-13T03:00:05;6.70;;;4.50;;
57249;SDS011;43102;52.014;-0.680;2023-07-13T03:01:07;6.70;;;4.50;;
57249;SDS011;43102;52.014;-0.680;2023-07-13T03:02:01;6.70;;;4.50;;
57249;SDS011;43102;52.014;-0.680;2023-07-13T03:03:00;6.70;;;4.50;;
57249;SDS011;43102;52.014;-0.680;2023-07-13T03:04:01;6.70;;;4.50;;
57249;SDS011;43102;52.014;-0.680;2023-07-13T03:05:01;6.70;;;4.50;;
57249;SDS011;43102;52.014;-0.680;2023-07-13T03:06:02;6.70;;;4.50;;
57249;SDS011;43102;52.014;-0.680;2023-07-13T03:07:00;6.70;;;4.50;;
57249;SDS011;43102;52.014;-0.680;2023-07-13T03:08:00;6.70;;;4.50;;
57249;SDS011;43102;52.014;-0.680;2023-07-13T03:09:01;6.70;;;4.50;;
57249;SDS011;43102;52.014;-0.680;2023-07-13T03:10:00;6.70;;;4.50;;
57249;SDS011;43102;52.014;-0.680;2023-07-13T03:11:03;6.70;;;4.50;;
57249;SDS011;43102;52.014;-0.680;2023-07-13T03:12:01;6.70;;;4.50;;
57249;SDS011;43102;52.014;-0.680;2023-07-13T03:13:01;6.70;;;4.50;;
57249;SDS011;43102;52.014;-0.680;2023-07-13T03:14:00;6.70;;;4.50;;
57249;SDS011;43102;52.014;-0.680;2023-07-13T03:15:01;6.70;;;4.50;;
57249;SDS011;43102;52.014;-0.680;2023-07-13T03:16:00;6.70;;;4.50;;
57249;SDS011;43102;52.014;-0.680;2023-07-13T03:17:00;6.70;;;4.50;;
57249;SDS011;43102;52.014;-0.680;2023-07-13T03:18:01;6.70;;;4.50;;
57249;SDS011;43102;52.014;-0.680;2023-07-13T03:19:00;6.70;;;4.50;;
57249;SDS011;43102;52.014;-0.680;2023-07-13T03:20:00;6.70;;;4.50;;
57249;SDS011;43102;52.014;-0.680;2023-07-13T03:21:00;6.70;;;4.50;;
57249;SDS011;43102;52.014;-0.680;2023-07-13T03:22:00;6.70;;;4.50;;
57249;SDS011;43102;52.014;-0.680;2023-07-13T03:23:01;6.70;;;4.50;;
57249;SDS011;43102;52.014;-0.680;2023-07-13T03:24:00;6.70;;;4.50;;
57249;SDS011;43102;52.014;-0.680;2023-07-13T03:25:00;6.70;;;4.50;;
57249;SDS011;43102;52.014;-0.680;2023-07-13T03:27:03;6.70;;;4.50;;
57249;SDS011;43102;52.014;-0.680;2023-07-13T03:28:00;6.70;;;4.50;;
57249;SDS011;43102;52.014;-0.680;2023-07-13T03:29:00;7.60;;;3.90;;
57249;SDS011;43102;52.014;-0.680;2023-07-13T03:30:00;7.60;;;3.90;;
57249;SDS011;43102;52.014;-0.680;2023-07-13T03:31:02;7.60;;;3.90;;
57249;SDS011;43102;52.014;-0.680;2023-07-13T03:32:00;7.60;;;3.90;;
57249;SDS011;43102;52.014;-0.680;2023-07-13T03:33:00;7.60;;;3.90;;
57249;SDS011;43102;52.014;-0.680;2023-07-13T03:34:00;7.60;;;3.90;;
57249;SDS011;43102;52.014;-0.680;2023-07-13T03:35:01;7.60;;;3.90;;
57249;SDS011;43102;52.014;-0.680;2023-07-13T03:36:01;7.60;;;3.90;;
57249;SDS011;43102;52.014;-0.680;2023-07-13T03:37:00;7.60;;;3.90;;
57249;SDS011;43102;52.014;-0.680;2023-07-13T03:38:01;7.60;;;3.90;;
57249;SDS011;43102;52.014;-0.680;2023-07-13T03:39:02;7.60;;;3.90;;
57249;SDS011;43102;52.014;-0.680;2023-07-13T03:40:00;7.60;;;3.90;;
57249;SDS011;43102;52.014;-0.680;2023-07-13T03:41:00;7.60;;;3.90;;
57249;SDS011;43102;52.014;-0.680;2023-07-13T03:42:00;7.60;;;3.90;;
57249;SDS011;43102;52.014;-0.680;2023-07-13T03:43:02;7.60;;;3.90;;
57249;SDS011;43102;52.014;-0.680;2023-07-13T03:44:01;7.60;;;3.90;;
57249;SDS011;43102;52.014;-0.680;2023-07-13T03:45:01;7.60;;;3.90;;
57249;SDS011;43102;52.014;-0.680;2023-07-13T03:46:00;7.60;;;3.90;;
57249;SDS011;43102;52.014;-0.680;2023-07-13T03:47:01;7.60;;;3.90;;
57249;SDS011;43102;52.014;-0.680;2023-07-13T03:48:00;7.60;;;3.90;;
57249;SDS011;43102;52.014;-0.680;2023-07-13T03:49:01;7.60;;;3.90;;
57249;SDS011;43102;52.014;-0.680;2023-07-13T03:50:00;7.60;;;3.90;;
57249;SDS011;43102;52.014;-0.680;2023-07-13T03:51:00;7.60;;;3.90;;
57249;SDS011;43102;52.014;-0.680;2023-07-13T03:52:01;7.60;;;3.90;;
57249;SDS011;43102;52.014;-0.680;2023-07-13T03:53:01;7.60;;;3.90;;
57249;SDS011;43102;52.014;-0.680;2023-07-13T03:54:02;7.60;;;3.90;;
57249;SDS011;43102;52.014;-0.680;2023-07-13T03:55:00;7.60;;;3.90;;
57249;SDS011;43102;52.014;-0.680;2023-07-13T03:56:00;7.60;;;3.90;;
57249;SDS011;43102;52.014;-0.680;2023-07-13T03:57:00;7.60;;;3.90;;
57249;SDS011;43102;52.014;-0.680;2023-07-13T03:58:27;7.60;;;3.90;;
57249;SDS011;43102;52.014;-0.680;2023-07-13T03:59:02;6.80;;;3.80;;
57249;SDS011;43102;52.014;-0.680;2023-07-13T04:00:00;6.80;;;3.80;;
57249;SDS011;43102;52.014;-0.680;2023-07-13T04:01:02;6.80;;;3.80;;
57249;SDS011;43102;52.014;-0.680;2023-07-13T04:02:01;6.80;;;3.80;;
57249;SDS011;43102;52.014;-0.680;2023-07-13T04:03:00;6.80;;;3.80;;
57249;SDS011;43102;52.014;-0.680;2023-07-13T04:04:04;6.80;;;3.80;;
57249;SDS011;43102;52.014;-0.680;2023-07-13T04:05:00;6.80;;;3.80;;
57249;SDS011;43102;52.014;-0.680;2023-07-13T04:06:02;6.80;;;3.80;;
57249;SDS011;43102;52.014;-0.680;2023-07-13T04:07:00;6.80;;;3.80;;
57249;SDS011;43102;52.014;-0.680;2023-07-13T04:08:00;6.80;;;3.80;;
57249;SDS011;43102;52.014;-0.680;2023-07-13T04:09:02;6.80;;;3.80;;
57249;SDS011;43102;52.014;-0.680;2023-07-13T04:10:00;6.80;;;3.80;;
57249;SDS011;43102;52.014;-0.680;2023-07-13T04:11:01;6.80;;;3.80;;
57249;SDS011;43102;52.014;-0.680;2023-07-13T04:12:00;6.80;;;3.80;;
57249;SDS011;43102;52.014;-0.680;2023-07-13T04:13:00;6.80;;;3.80;;
57249;SDS011;43102;52.014;-0.680;2023-07-13T04:14:00;6.80;;;3.80;;
57249;SDS011;43102;52.014;-0.680;2023-07-13T04:15:00;6.80;;;3.80;;
57249;SDS011;43102;52.014;-0.680;2023-07-13T04:16:00;6.80;;;3.80;;
57249;SDS011;43102;52.014;-0.680;2023-07-13T04:17:00;6.80;;;3.80;;
57249;SDS011;43102;52.014;-0.680;2023-07-13T04:18:00;6.80;;;3.80;;
57249;SDS011;43102;52.014;-0.680;2023-07-13T04:19:01;6.80;;;3.80;;
57249;SDS011;43102;52.014;-0.680;2023-07-13T04:20:00;6.80;;;3.80;;
57249;SDS011;43102;52.014;-0.680;2023-07-13T04:21:00;6.80;;;3.80;;
57249;SDS011;43102;52.014;-0.680;2023-07-13T04:22:00;6.80;;;3.80;;
57249;SDS011;43102;52.014;-0.680;2023-07-13T04:23:01;6.80;;;3.80;;
57249;SDS011;43102;52.014;-0.680;2023-07-13T04:24:00;6.80;;;3.80;;
57249;SDS011;43102;52.014;-0.680;2023-07-13T04:25:00;6.80;;;3.80;;
57249;SDS011;43102;52.014;-0.680;2023-07-13T04:26:00;6.80;;;3.80;;
57249;SDS011;43102;52.014;-0.680;2023-07-13T04:27:03;6.80;;;3.80;;
57249;SDS011;43102;52.014;-0.680;2023-07-13T04:28:01;6.80;;;3.80;;
57249;SDS011;43102;52.014;-0.680;2023-07-13T04:29:00;7.30;;;4.70;;
57249;SDS011;43102;52.014;-0.680;2023-07-13T04:30:00;7.30;;;4.70;;
57249;SDS011;43102;52.014;-0.680;2023-07-13T04:31:01;7.30;;;4.70;;
57249;SDS011;43102;52.014;-0.680;2023-07-13T04:32:01;7.30;;;4.70;;
57249;SDS011;43102;52.014;-0.680;2023-07-13T04:33:00;7.30;;;4.70;;
57249;SDS011;43102;52.014;-0.680;2023-07-13T04:34:00;7.30;;;4.70;;
57249;SDS011;43102;52.014;-0.680;2023-07-13T04:35:00;7.30;;;4.70;;
57249;SDS011;43102;52.014;-0.680;2023-07-13T04:36:01;7.30;;;4.70;;
57249;SDS011;43102;52.014;-0.680;2023-07-13T04:37:01;7.30;;;4.70;;
57249;SDS011;43102;52.014;-0.680;2023-07-13T04:38:00;7.30;;;4.70;;
57249;SDS011;43102;52.014;-0.680;2023-07-13T04:39:01;7.30;;;4.70;;
57249;SDS011;43102;52.014;-0.680;2023-07-13T04:40:01;7.30;;;4.70;;
57249;SDS011;43102;52.014;-0.680;2023-07-13T04:41:02;7.30;;;4.70;;
57249;SDS011;43102;52.014;-0.680;2023-07-13T04:42:00;7.30;;;4.70;;
57249;SDS011;43102;52.014;-0.680;2023-07-13T04:43:00;7.30;;;4.70;;
57249;SDS011;43102;52.014;-0.680;2023-07-13T04:44:00;7.30;;;4.70;;
57249;SDS011;43102;52.014;-0.680;2023-07-13T04:45:00;7.30;;;4.70;;
57249;SDS011;43102;52.014;-0.680;2023-07-13T04:46:06;7.30;;;4.70;;
57249;SDS011;43102;52.014;-0.680;2023-07-13T04:47:00;7.30;;;4.70;;
57249;SDS011;43102;52.014;-0.680;2023-07-13T04:48:00;7.30;;;4.70;;
57249;SDS011;43102;52.014;-0.680;2023-07-13T04:49:00;7.30;;;4.70;;
57249;SDS011;43102;52.014;-0.680;2023-07-13T04:50:01;7.30;;;4.70;;
57249;SDS011;43102;52.014;-0.680;2023-07-13T04:51:01;7.30;;;4.70;;
57249;SDS011;43102;52.014;-0.680;2023-07-13T04:52:00;7.30;;;4.70;;
57249;SDS011;43102;52.014;-0.680;2023-07-13T04:53:00;7.30;;;4.70;;
57249;SDS011;43102;52.014;-0.680;2023-07-13T04:54:02;7.30;;;4.70;;
57249;SDS011;43102;52.014;-0.680;2023-07-13T04:55:01;7.30;;;4.70;;
57249;SDS011;43102;52.014;-0.680;2023-07-13T04:56:01;7.30;;;4.70;;
57249;SDS011;43102;52.014;-0.680;2023-07-13T04:57:01;7.30;;;4.70;;
57249;SDS011;43102;52.014;-0.680;2023-07-13T04:58:01;7.30;;;4.70;;
57249;SDS011;43102;52.014;-0.680;2023-07-13T04:59:00;7.90;;;4.00;;
57249;SDS011;43102;52.014;-0.680;2023-07-13T05:00:01;7.90;;;4.00;;
57249;SDS011;43102;52.014;-0.680;2023-07-13T05:01:02;7.90;;;4.00;;
57249;SDS011;43102;52.014;-0.680;2023-07-13T05:02:01;7.90;;;4.00;;
57249;SDS011;43102;52.014;-0.680;2023-07-13T05:03:00;7.90;;;4.00;;
57249;SDS011;43102;52.014;-0.680;2023-07-13T05:04:01;7.90;;;4.00;;
57249;SDS011;43102;52.014;-0.680;2023-07-13T05:05:01;7.90;;;4.00;;
57249;SDS011;43102;52.014;-0.680;2023-07-13T05:06:04;7.90;;;4.00;;
57249;SDS011;43102;52.014;-0.680;2023-07-13T05:07:00;7.90;;;4.00;;
57249;SDS011;43102;52.014;-0.680;2023-07-13T05:08:00;7.90;;;4.00;;
57249;SDS011;43102;52.014;-0.680;2023-07-13T05:09:00;7.90;;;4.00;;
57249;SDS011;43102;52.014;-0.680;2023-07-13T05:10:01;7.90;;;4.00;;
57249;SDS011;43102;52.014;-0.680;2023-07-13T05:11:01;7.90;;;4.00;;
57249;SDS011;43102;52.014;-0.680;2023-07-13T05:12:00;7.90;;;4.00;;
57249;SDS011;43102;52.014;-0.680;2023-07-13T05:13:00;7.90;;;4.00;;
57249;SDS011;43102;52.014;-0.680;2023-07-13T05:14:01;7.90;;;4.00;;
57249;SDS011;43102;52.014;-0.680;2023-07-13T05:15:01;7.90;;;4.00;;
57249;SDS011;43102;52.014;-0.680;2023-07-13T05:16:03;7.90;;;4.00;;
57249;SDS011;43102;52.014;-0.680;2023-07-13T05:17:00;7.90;;;4.00;;
57249;SDS011;43102;52.014;-0.680;2023-07-13T05:18:00;7.90;;;4.00;;
57249;SDS011;43102;52.014;-0.680;2023-07-13T05:19:00;7.90;;;4.00;;
57249;SDS011;43102;52.014;-0.680;2023-07-13T05:20:00;7.90;;;4.00;;
57249;SDS011;43102;52.014;-0.680;2023-07-13T05:21:03;7.90;;;4.00;;
57249;SDS011;43102;52.014;-0.680;2023-07-13T05:22:00;7.90;;;4.00;;
57249;SDS011;43102;52.014;-0.680;2023-07-13T05:23:01;7.90;;;4.00;;
57249;SDS011;43102;52.014;-0.680;2023-07-13T05:24:10;7.90;;;4.00;;
57249;SDS011;43102;52.014;-0.680;2023-07-13T05:25:04;7.90;;;4.00;;
57249;SDS011;43102;52.014;-0.680;2023-07-13T05:26:01;7.90;;;4.00;;
57249;SDS011;43102;52.014;-0.680;2023-07-13T05:27:00;7.90;;;4.00;;
57249;SDS011;43102;52.014;-0.680;2023-07-13T05:28:01;7.90;;;4.00;;
57249;SDS011;43102;52.014;-0.680;2023-07-13T05:29:00;8.10;;;4.30;;
57249;SDS011;43102;52.014;-0.680;2023-07-13T05:30:02;8.10;;;4.30;;
57249;SDS011;43102;52.014;-0.680;2023-07-13T05:31:00;8.10;;;4.30;;
57249;SDS011;43102;52.014;-0.680;2023-07-13T05:32:01;8.10;;;4.30;;
57249;SDS011;43102;52.014;-0.680;2023-07-13T05:33:00;8.10;;;4.30;;
57249;SDS011;43102;52.014;-0.680;2023-07-13T05:34:00;8.10;;;4.30;;
57249;SDS011;43102;52.014;-0.680;2023-07-13T05:35:00;8.10;;;4.30;;
57249;SDS011;43102;52.014;-0.680;2023-07-13T05:36:00;8.10;;;4.30;;
57249;SDS011;43102;52.014;-0.680;2023-07-13T05:37:00;8.10;;;4.30;;
57249;SDS011;43102;52.014;-0.680;2023-07-13T05:38:00;8.10;;;4.30;;
57249;SDS011;43102;52.014;-0.680;2023-07-13T05:39:00;8.10;;;4.30;;
57249;SDS011;43102;52.014;-0.680;2023-07-13T05:40:00;8.10;;;4.30;;
57249;SDS011;43102;52.014;-0.680;2023-07-13T05:41:04;8.10;;;4.30;;
57249;SDS011;43102;52.014;-0.680;2023-07-13T05:42:02;8.10;;;4.30;;
57249;SDS011;43102;52.014;-0.680;2023-07-13T05:43:00;8.10;;;4.30;;
57249;SDS011;43102;52.014;-0.680;2023-07-13T05:44:00;8.10;;;4.30;;
57249;SDS011;43102;52.014;-0.680;2023-07-13T05:45:01;8.10;;;4.30;;
57249;SDS011;43102;52.014;-0.680;2023-07-13T05:46:00;8.10;;;4.30;;
57249;SDS011;43102;52.014;-0.680;2023-07-13T05:47:00;8.10;;;4.30;;
57249;SDS011;43102;52.014;-0.680;2023-07-13T05:48:01;8.10;;;4.30;;
57249;SDS011;43102;52.014;-0.680;2023-07-13T05:49:01;8.10;;;4.30;;
57249;SDS011;43102;52.014;-0.680;2023-07-13T05:50:00;8.10;;;4.30;;
57249;SDS011;43102;52.014;-0.680;2023-07-13T05:51:01;8.10;;;4.30;;
57249;SDS011;43102;52.014;-0.680;2023-07-13T05:52:00;8.10;;;4.30;;
57249;SDS011;43102;52.014;-0.680;2023-07-13T05:53:00;8.10;;;4.30;;
57249;SDS011;43102;52.014;-0.680;2023-07-13T05:54:00;8.10;;;4.30;;
57249;SDS011;43102;52.014;-0.680;2023-07-13T05:55:00;8.10;;;4.30;;
57249;SDS011;43102;52.014;-0.680;2023-07-13T05:56:03;8.10;;;4.30;;